createdAt,value
2023-07-15T00:02:07.867Z,53232.72
2023-07-15T00:04:37.111Z,53236.69
2023-07-15T00:07:07.434Z,53187.00
2023-07-15T00:09:36.428Z,53204.88
2023-07-15T00:12:06.999Z,53196.94
2023-07-15T00:14:35.763Z,53187.00
2023-07-15T00:17:04.783Z,53204.88
2023-07-15T00:19:34.504Z,53210.84
2023-07-15T00:22:03.991Z,53198.91
2023-07-15T00:24:32.788Z,53192.94
2023-07-15T00:27:01.278Z,53169.09
2023-07-15T00:29:31.238Z,53185.00
2023-07-15T00:31:59.696Z,53181.03
2023-07-15T00:34:29.967Z,53181.03
2023-07-15T00:36:58.488Z,53190.97
2023-07-15T00:39:27.276Z,53208.84
2023-07-15T00:41:58.523Z,53204.88
2023-07-15T00:44:26.629Z,53202.91
2023-07-15T00:47:23.179Z,53187.00
2023-07-15T00:49:52.869Z,53188.97
2023-07-15T00:52:23.346Z,53216.81
2023-07-15T00:54:55.364Z,53188.97
2023-07-15T00:57:27.953Z,53181.03
2023-07-15T00:59:59.824Z,53188.97
2023-07-15T01:02:31.681Z,53218.81
2023-07-15T01:05:00.349Z,53181.03
2023-07-15T01:07:30.110Z,53190.97
2023-07-15T01:09:58.549Z,53204.88
2023-07-15T01:12:27.517Z,53188.97
2023-07-15T01:14:56.014Z,53200.91
2023-07-15T01:17:26.206Z,53214.81
2023-07-15T01:19:56.000Z,53161.16
2023-07-15T01:22:24.931Z,53208.84
2023-07-15T01:24:54.909Z,53226.75
2023-07-15T01:27:27.857Z,53194.94
2023-07-15T01:29:56.483Z,53206.88
2023-07-15T01:32:26.172Z,53214.81
2023-07-15T01:34:54.637Z,53224.75
2023-07-15T01:37:23.251Z,53218.81
2023-07-15T01:39:54.238Z,53224.75
2023-07-15T01:42:22.761Z,53210.84
2023-07-15T01:44:52.098Z,53222.78
2023-07-15T01:47:21.537Z,53244.63
2023-07-15T01:49:49.965Z,53220.78
2023-07-15T01:52:18.432Z,53232.72
2023-07-15T01:54:46.823Z,53212.84
2023-07-15T01:57:16.763Z,53230.72
2023-07-15T01:59:45.105Z,53220.78
2023-07-15T02:02:13.723Z,53222.78
2023-07-15T02:04:42.299Z,53222.78
2023-07-15T02:07:10.730Z,53212.84
2023-07-15T02:09:40.552Z,53240.66
2023-07-15T02:12:10.266Z,53222.78
2023-07-15T02:14:40.014Z,53260.53
2023-07-15T02:17:09.485Z,53244.63
2023-07-15T02:19:38.752Z,53260.53
2023-07-15T02:22:08.151Z,53242.66
2023-07-15T02:24:36.471Z,53252.59
2023-07-15T02:27:05.571Z,53264.53
2023-07-15T02:29:33.962Z,53238.69
2023-07-15T02:32:04.531Z,53258.56
2023-07-15T02:34:32.984Z,53274.47
2023-07-15T02:37:01.533Z,53258.56
2023-07-15T02:39:29.932Z,53264.53
2023-07-15T02:41:58.310Z,53276.44
2023-07-15T02:44:26.684Z,53266.50
2023-07-15T02:46:55.199Z,53248.63
2023-07-15T02:49:25.125Z,53260.53
2023-07-15T02:51:53.595Z,53252.59
2023-07-15T02:54:21.924Z,53264.53
2023-07-15T02:56:51.757Z,53254.59
2023-07-15T02:59:20.210Z,53272.47
2023-07-15T03:01:49.947Z,53252.59
2023-07-15T03:04:18.471Z,53280.41
2023-07-15T03:06:48.194Z,53298.31
2023-07-15T03:09:16.557Z,53288.38
2023-07-15T03:11:45.844Z,53288.38
2023-07-15T03:14:14.282Z,53280.41
2023-07-15T03:16:42.821Z,53294.34
2023-07-15T03:19:11.218Z,53240.66
2023-07-15T03:21:40.628Z,53270.47
2023-07-15T03:24:11.782Z,53262.53
2023-07-15T03:26:41.401Z,53280.41
2023-07-15T03:29:10.586Z,53282.41
2023-07-15T03:31:42.566Z,53298.31
2023-07-15T03:34:11.085Z,53280.41
2023-07-15T03:36:39.502Z,53270.47
2023-07-15T03:39:08.294Z,53306.28
2023-07-15T03:41:38.732Z,53272.47
2023-07-15T03:44:07.248Z,53288.38
2023-07-15T03:46:35.822Z,53282.41
2023-07-15T03:49:04.369Z,53274.47
2023-07-15T03:51:32.963Z,53296.31
2023-07-15T03:54:01.289Z,53300.31
2023-07-15T03:56:30.216Z,53300.31
2023-07-15T03:59:00.462Z,53280.41
2023-07-15T04:01:29.069Z,53284.41
2023-07-15T04:03:57.600Z,53292.34
2023-07-15T04:06:26.241Z,53316.22
2023-07-15T04:08:54.852Z,53268.50
2023-07-15T04:11:23.327Z,53282.41
2023-07-15T04:13:51.729Z,53270.47
2023-07-15T04:16:21.672Z,53292.34
2023-07-15T04:18:50.030Z,53262.53
2023-07-15T04:21:18.422Z,53278.44
2023-07-15T04:23:46.914Z,53298.31
2023-07-15T04:26:15.658Z,53260.53
2023-07-15T04:28:44.223Z,53300.31
2023-07-15T04:31:12.637Z,53244.63
2023-07-15T04:33:42.420Z,53284.41
2023-07-15T04:36:10.925Z,53252.59
2023-07-15T04:38:39.283Z,53264.53
2023-07-15T04:41:08.062Z,53264.53
2023-07-15T04:43:36.461Z,53244.63
2023-07-15T04:46:05.384Z,53272.47
2023-07-15T04:48:34.443Z,53258.56
2023-07-15T04:51:04.555Z,53248.63
2023-07-15T04:53:33.049Z,53276.44
2023-07-15T04:56:03.681Z,53280.41
2023-07-15T04:58:32.367Z,53256.56
2023-07-15T05:01:00.864Z,53258.56
2023-07-15T05:03:29.280Z,53260.53
2023-07-15T05:05:57.731Z,53264.53
2023-07-15T05:08:29.221Z,53240.66
2023-07-15T05:10:58.941Z,53244.63
2023-07-15T05:13:27.487Z,53256.56
2023-07-15T05:15:57.751Z,53274.47
2023-07-15T05:18:26.282Z,53266.50
2023-07-15T05:20:54.664Z,53256.56
2023-07-15T05:23:24.838Z,53252.59
2023-07-15T05:25:56.518Z,53258.56
2023-07-15T05:28:27.413Z,53268.50
2023-07-15T05:30:55.866Z,53232.72
2023-07-15T05:33:24.415Z,53234.69
2023-07-15T05:35:54.096Z,53252.59
2023-07-15T05:38:24.224Z,53252.59
2023-07-15T05:40:52.762Z,53228.75
2023-07-15T05:43:22.721Z,53244.63
2023-07-15T05:45:51.132Z,53220.78
2023-07-15T05:48:19.633Z,53228.75
2023-07-15T05:50:48.326Z,53246.63
2023-07-15T05:53:16.840Z,53244.63
2023-07-15T05:55:45.212Z,53220.78
2023-07-15T05:58:13.667Z,53222.78
2023-07-15T06:00:43.521Z,53212.84
2023-07-15T06:03:12.075Z,53250.59
2023-07-15T06:05:40.555Z,53244.63
2023-07-15T06:08:08.996Z,53240.66
2023-07-15T06:10:37.481Z,53224.75
2023-07-15T06:13:06.106Z,53230.72
2023-07-15T06:15:36.449Z,53228.75
2023-07-15T06:18:06.203Z,53220.78
2023-07-15T06:20:34.735Z,53212.84
2023-07-15T06:23:03.397Z,53204.88
2023-07-15T06:25:31.729Z,53210.84
2023-07-15T06:28:00.188Z,53216.81
2023-07-15T06:30:29.163Z,53208.84
2023-07-15T06:32:57.755Z,53214.81
2023-07-15T06:35:27.899Z,53214.81
2023-07-15T06:37:56.324Z,53181.03
2023-07-15T06:40:24.930Z,53224.75
2023-07-15T06:42:53.421Z,53204.88
2023-07-15T06:45:23.121Z,53202.91
2023-07-15T06:47:52.004Z,53220.78
2023-07-15T06:50:20.704Z,53181.03
2023-07-15T06:52:50.353Z,53216.81
2023-07-15T06:55:19.707Z,53202.91
2023-07-15T06:57:48.294Z,53200.91
2023-07-15T07:00:17.033Z,53190.97
2023-07-15T07:02:46.353Z,53155.19
2023-07-15T07:05:18.039Z,53183.00
2023-07-15T07:07:48.149Z,53210.84
2023-07-15T07:10:18.337Z,53165.13
2023-07-15T07:12:47.397Z,53183.00
2023-07-15T07:15:15.812Z,53206.88
2023-07-15T07:17:44.362Z,53188.97
2023-07-15T07:20:13.397Z,53183.00
2023-07-15T07:22:42.228Z,53188.97
2023-07-15T07:25:11.866Z,53206.88
2023-07-15T07:27:41.675Z,53185.00
2023-07-15T07:30:10.814Z,53206.88
2023-07-15T07:32:39.288Z,53163.13
2023-07-15T07:35:08.919Z,53202.91
2023-07-15T07:37:37.394Z,53200.91
2023-07-15T07:40:06.490Z,53185.00
2023-07-15T07:42:35.176Z,53220.78
2023-07-15T07:45:14.329Z,53206.88
2023-07-15T07:47:42.885Z,53188.97
2023-07-15T07:50:12.251Z,53177.06
2023-07-15T07:52:40.783Z,53200.91
2023-07-15T07:55:10.002Z,53185.00
2023-07-15T07:57:38.346Z,53192.94
2023-07-15T08:00:10.393Z,53198.91
2023-07-15T08:02:38.960Z,53179.03
2023-07-15T08:05:09.816Z,53204.88
2023-07-15T08:07:38.368Z,53200.91
2023-07-15T08:10:08.345Z,53157.19
2023-07-15T08:12:36.702Z,53163.13
2023-07-15T08:15:08.649Z,53163.13
2023-07-15T08:17:39.148Z,53185.00
2023-07-15T08:20:09.863Z,53177.06
2023-07-15T08:22:38.837Z,53185.00
2023-07-15T08:25:08.011Z,53185.00
2023-07-15T08:27:36.500Z,53196.94
2023-07-15T08:30:05.447Z,53190.97
2023-07-15T08:32:33.975Z,53202.91
2023-07-15T08:35:05.677Z,53185.00
2023-07-15T08:37:34.627Z,53188.97
2023-07-15T08:40:03.585Z,53181.03
2023-07-15T08:42:32.777Z,53149.22
2023-07-15T08:45:01.368Z,53169.09
2023-07-15T08:47:30.004Z,53173.06
2023-07-15T08:50:01.632Z,53183.00
2023-07-15T08:52:32.254Z,53169.09
2023-07-15T08:55:01.774Z,53222.78
2023-07-15T08:57:30.329Z,53192.94
2023-07-15T08:59:59.692Z,53177.06
2023-07-15T09:02:28.310Z,53169.09
2023-07-15T09:04:56.849Z,53173.06
2023-07-15T09:07:29.001Z,53161.16
2023-07-15T09:10:06.530Z,53220.78
2023-07-15T09:12:35.073Z,53187.00
2023-07-15T09:15:03.429Z,53185.00
2023-07-15T09:17:31.790Z,53192.94
2023-07-15T09:20:01.356Z,53181.03
2023-07-15T09:22:30.666Z,53190.97
2023-07-15T09:25:06.304Z,53163.13
2023-07-15T09:27:34.947Z,53157.19
2023-07-15T09:30:03.405Z,53169.09
2023-07-15T09:32:33.892Z,53188.97
2023-07-15T09:35:02.356Z,53173.06
2023-07-15T09:37:32.070Z,53202.91
2023-07-15T09:40:02.288Z,53196.94
2023-07-15T09:42:32.320Z,53216.81
2023-07-15T09:45:01.539Z,53212.84
2023-07-15T09:47:30.465Z,53177.06
2023-07-15T09:49:58.994Z,53192.94
2023-07-15T09:52:28.515Z,53185.00
2023-07-15T09:54:57.818Z,53188.97
2023-07-15T09:57:26.986Z,53204.88
2023-07-15T09:59:58.435Z,53204.88
2023-07-15T10:02:35.382Z,53220.78
2023-07-15T10:05:05.933Z,53202.91
2023-07-15T10:07:35.520Z,53194.94
2023-07-15T10:10:06.739Z,53169.09
2023-07-15T10:12:35.746Z,53185.00
2023-07-15T10:15:08.642Z,53218.81
2023-07-15T10:17:39.106Z,53202.91
2023-07-15T10:20:11.710Z,53210.84
2023-07-15T10:22:41.369Z,53218.81
2023-07-15T10:25:11.705Z,53232.72
2023-07-15T10:27:41.217Z,53212.84
2023-07-15T10:30:19.302Z,53232.72
2023-07-15T10:33:13.302Z,53232.72
2023-07-15T10:35:50.614Z,53256.56
2023-07-15T10:38:24.639Z,53252.59
2023-07-15T10:40:54.567Z,53515.00
2023-07-15T10:43:24.352Z,54244.72
2023-07-15T10:45:55.408Z,55237.13
2023-07-15T10:48:24.788Z,56625.78
2023-07-15T10:50:54.591Z,58381.31
2023-07-15T10:53:24.616Z,60340.97
2023-07-15T10:55:57.273Z,61695.84
2023-07-15T10:58:25.949Z,60327.00
2023-07-15T11:01:01.909Z,59197.69
2023-07-15T11:03:32.197Z,58235.97
2023-07-15T11:06:02.990Z,57525.31
2023-07-15T11:08:32.770Z,56432.75
2023-07-15T11:11:02.545Z,55436.03
2023-07-15T11:13:31.628Z,54992.47
2023-07-15T11:16:01.551Z,54865.19
2023-07-15T11:18:30.446Z,54535.03
2023-07-15T11:21:00.113Z,54228.81
2023-07-15T11:23:30.655Z,54181.06
2023-07-15T11:26:00.170Z,54163.19
2023-07-15T11:28:28.700Z,54049.84
2023-07-15T11:30:57.179Z,53970.31
2023-07-15T11:33:27.046Z,53902.69
2023-07-15T11:35:55.462Z,53819.19
2023-07-15T11:38:31.391Z,53763.53
2023-07-15T11:41:01.929Z,53678.03
2023-07-15T11:43:32.683Z,53721.78
2023-07-15T11:46:02.578Z,53682.00
2023-07-15T11:48:33.964Z,53658.16
2023-07-15T11:51:07.655Z,53630.31
2023-07-15T11:53:38.345Z,53642.25
2023-07-15T11:56:07.701Z,53610.44
2023-07-15T11:58:44.607Z,53572.66
2023-07-15T12:01:15.126Z,53606.47
2023-07-15T12:03:46.109Z,53548.81
2023-07-15T12:06:16.071Z,53544.81
2023-07-15T12:08:45.125Z,53507.06
2023-07-15T12:11:19.198Z,53520.97
2023-07-15T12:13:47.625Z,53443.44
2023-07-15T12:16:19.148Z,53431.50
2023-07-15T12:18:51.027Z,53407.66
2023-07-15T12:21:19.597Z,53365.91
2023-07-15T12:23:48.035Z,53383.78
2023-07-15T12:26:16.764Z,53344.03
2023-07-15T12:28:45.640Z,53300.31
2023-07-15T12:31:14.881Z,53373.84
2023-07-15T12:33:43.802Z,53359.94
2023-07-15T12:36:15.362Z,53352.00
2023-07-15T12:38:44.722Z,53348.00
2023-07-15T12:41:14.265Z,53328.13
2023-07-15T12:43:43.010Z,53308.25
2023-07-15T12:46:11.708Z,53286.38
2023-07-15T12:48:40.693Z,53280.41
2023-07-15T12:51:09.275Z,53308.25
2023-07-15T12:53:39.457Z,53282.41
2023-07-15T12:56:12.813Z,53288.38
2023-07-15T12:58:41.969Z,53308.25
2023-07-15T13:01:10.751Z,53310.25
2023-07-15T13:03:39.859Z,53298.31
2023-07-15T13:06:08.428Z,53310.25
2023-07-15T13:08:38.760Z,53355.97
2023-07-15T13:11:08.292Z,53340.06
2023-07-15T13:13:36.832Z,53399.69
2023-07-15T13:16:06.612Z,53411.63
2023-07-15T13:18:35.118Z,53393.75
2023-07-15T13:21:03.713Z,53395.72
2023-07-15T13:23:32.261Z,53485.19
2023-07-15T13:26:02.614Z,53534.88
2023-07-15T13:28:31.129Z,53560.72
2023-07-15T13:30:59.647Z,53542.84
2023-07-15T13:33:28.045Z,53572.66
2023-07-15T13:35:57.168Z,53542.84
2023-07-15T13:38:26.192Z,53610.44
2023-07-15T13:40:54.918Z,53640.25
2023-07-15T13:43:24.803Z,53590.56
2023-07-15T13:45:53.293Z,53576.63
2023-07-15T13:48:22.024Z,53463.31
2023-07-15T13:50:50.583Z,53503.06
2023-07-15T13:53:19.028Z,53465.31
2023-07-15T13:55:47.446Z,53395.72
2023-07-15T13:58:15.967Z,53373.84
2023-07-15T14:00:46.338Z,53379.81
2023-07-15T14:03:14.873Z,53344.03
2023-07-15T14:05:43.350Z,53306.28
2023-07-15T14:08:11.842Z,53244.63
2023-07-15T14:10:40.211Z,53300.31
2023-07-15T14:13:08.746Z,53240.66
2023-07-15T14:15:37.273Z,53258.56
2023-07-15T14:18:08.962Z,53224.75
2023-07-15T14:20:37.745Z,53214.81
2023-07-15T14:23:06.156Z,53244.63
2023-07-15T14:25:34.557Z,53204.88
2023-07-15T14:28:03.017Z,53236.69
2023-07-15T14:30:31.445Z,53194.94
2023-07-15T14:32:59.928Z,53222.78
2023-07-15T14:35:30.051Z,53220.78
2023-07-15T14:37:58.394Z,53202.91
2023-07-15T14:40:26.967Z,53228.75
2023-07-15T14:42:55.371Z,53194.94
2023-07-15T14:45:24.032Z,53194.94
2023-07-15T14:47:52.574Z,53183.00
2023-07-15T14:50:21.239Z,53177.06
2023-07-15T14:52:50.979Z,53165.13
2023-07-15T14:55:19.572Z,53161.16
2023-07-15T14:57:48.049Z,53167.13
2023-07-15T15:00:16.846Z,53163.13
2023-07-15T15:02:45.534Z,53169.09
2023-07-15T15:05:13.998Z,53169.09
2023-07-15T15:07:42.426Z,53190.97
2023-07-15T15:10:12.514Z,53177.06
2023-07-15T15:12:41.020Z,53127.34
2023-07-15T15:15:10.511Z,53167.13
2023-07-15T15:17:38.981Z,53173.06
2023-07-15T15:20:08.776Z,53173.06
2023-07-15T15:22:38.986Z,53200.91
2023-07-15T15:25:08.020Z,53188.97
2023-07-15T15:27:37.791Z,53185.00
2023-07-15T15:30:10.032Z,53175.06
2023-07-15T15:32:40.886Z,53194.94
2023-07-15T15:35:09.938Z,53169.09
2023-07-15T15:37:38.906Z,53188.97
2023-07-15T15:40:09.044Z,53181.03
2023-07-15T15:42:40.581Z,53179.03
2023-07-15T15:45:11.581Z,53167.13
2023-07-15T15:47:41.064Z,53175.06
2023-07-15T15:50:10.489Z,53165.13
2023-07-15T15:52:39.800Z,53185.00
2023-07-15T15:55:09.093Z,53198.91
2023-07-15T15:57:38.864Z,53190.97
2023-07-15T16:00:08.841Z,53181.03
2023-07-15T16:02:42.997Z,53161.16
2023-07-15T16:05:11.920Z,53190.97
2023-07-15T16:07:40.524Z,53188.97
2023-07-15T16:10:09.533Z,53185.00
2023-07-15T16:12:42.003Z,53169.09
2023-07-15T16:15:11.626Z,53181.03
2023-07-15T16:17:40.089Z,53187.00
2023-07-15T16:20:09.526Z,53177.06
2023-07-15T16:22:38.358Z,53155.19
2023-07-15T16:25:07.931Z,53169.09
2023-07-15T16:27:36.410Z,53145.25
2023-07-15T16:30:07.322Z,53129.34
2023-07-15T16:32:35.804Z,53153.19
2023-07-15T16:35:05.275Z,53153.19
2023-07-15T16:37:33.783Z,53133.31
2023-07-15T16:40:02.429Z,53141.28
2023-07-15T16:42:30.838Z,53147.22
2023-07-15T16:44:59.332Z,53151.22
2023-07-15T16:47:29.229Z,53179.03
2023-07-15T16:49:57.764Z,53157.19
2023-07-15T16:52:26.235Z,53153.19
2023-07-15T16:54:54.677Z,53177.06
2023-07-15T16:57:23.103Z,53192.94
2023-07-15T16:59:51.597Z,53149.22
2023-07-15T17:02:20.220Z,53151.22
2023-07-15T17:04:50.038Z,53177.06
2023-07-15T17:07:18.579Z,53157.19
2023-07-15T17:09:47.145Z,53181.03
2023-07-15T17:12:16.396Z,53147.22
2023-07-15T17:14:44.870Z,53161.16
2023-07-15T17:17:13.268Z,53145.25
2023-07-15T17:19:41.634Z,53157.19
2023-07-15T17:22:12.493Z,53188.97
2023-07-15T17:24:40.983Z,53161.16
2023-07-15T17:27:09.480Z,53149.22
2023-07-15T17:29:38.044Z,53157.19
2023-07-15T17:32:06.683Z,53149.22
2023-07-15T17:34:35.247Z,53153.19
2023-07-15T17:37:03.919Z,53157.19
2023-07-15T17:39:33.876Z,53169.09
2023-07-15T17:42:03.337Z,53153.19
2023-07-15T17:44:32.008Z,53173.06
2023-07-15T17:47:03.345Z,53161.16
2023-07-15T17:49:31.946Z,53165.13
2023-07-15T17:52:00.569Z,53149.22
2023-07-15T17:54:29.303Z,53145.25
2023-07-15T17:56:59.114Z,53177.06
2023-07-15T17:59:27.529Z,53159.16
2023-07-15T18:01:55.996Z,53151.22
2023-07-15T18:04:24.359Z,53181.03
2023-07-15T18:06:52.842Z,53179.03
2023-07-15T18:09:21.312Z,53200.91
2023-07-15T18:11:49.805Z,53236.69
2023-07-15T18:14:19.557Z,53326.16
2023-07-15T18:16:48.033Z,53411.63
2023-07-15T18:19:16.522Z,53447.41
2023-07-15T18:21:44.986Z,53602.47
2023-07-15T18:24:13.490Z,53765.50
2023-07-15T18:26:42.886Z,53962.34
2023-07-15T18:29:12.377Z,54304.38
2023-07-15T18:31:42.193Z,54564.88
2023-07-15T18:34:23.307Z,54767.72
2023-07-15T18:36:53.285Z,55143.63
2023-07-15T18:39:21.715Z,55463.88
2023-07-15T18:41:50.193Z,55746.34
2023-07-15T18:44:18.519Z,55967.19
2023-07-15T18:46:48.445Z,56727.25
2023-07-15T18:49:16.887Z,57608.94
2023-07-15T18:51:45.225Z,58482.84
2023-07-15T18:54:13.661Z,60484.38
2023-07-15T18:56:42.208Z,62714.34
2023-07-15T18:59:10.940Z,67448.13
2023-07-15T19:01:39.574Z,68961.59
2023-07-15T19:04:09.487Z,70907.34
2023-07-15T19:06:37.977Z,72978.16
2023-07-15T19:09:06.405Z,74002.03
2023-07-15T19:11:37.424Z,66865.28
2023-07-15T19:14:06.303Z,64479.03
2023-07-15T19:16:34.876Z,60388.75
2023-07-15T19:19:03.277Z,58771.56
2023-07-15T19:21:33.205Z,57549.22
2023-07-15T19:24:02.437Z,56777.00
2023-07-15T19:26:30.977Z,56225.84
2023-07-15T19:28:59.515Z,56008.97
2023-07-15T19:31:28.021Z,56281.53
2023-07-15T19:33:58.069Z,56788.94
2023-07-15T19:36:26.869Z,57855.75
2023-07-15T19:38:56.967Z,59098.13
2023-07-15T19:41:25.501Z,59488.47
2023-07-15T19:43:53.995Z,59777.25
2023-07-15T19:46:22.535Z,60374.81
2023-07-15T19:48:50.988Z,61028.28
2023-07-15T19:51:31.032Z,61388.94
2023-07-15T19:54:09.152Z,61966.88
2023-07-15T19:56:37.593Z,62670.50
2023-07-15T19:59:07.296Z,62503.03
2023-07-15T20:01:36.295Z,62827.97
2023-07-15T20:04:04.865Z,63789.00
2023-07-15T20:06:33.258Z,64836.06
2023-07-15T20:09:01.643Z,65382.66
2023-07-15T20:11:34.521Z,65001.63
2023-07-15T20:14:02.973Z,64283.56
2023-07-15T20:16:31.457Z,64042.25
2023-07-15T20:18:59.887Z,63697.25
2023-07-15T20:21:28.362Z,63717.19
2023-07-15T20:23:56.900Z,63573.63
2023-07-15T20:26:25.474Z,63481.91
2023-07-15T20:28:55.406Z,63796.97
2023-07-15T20:31:24.039Z,63976.44
2023-07-15T20:33:52.508Z,64616.63
2023-07-15T20:36:20.965Z,64834.06
2023-07-15T20:38:49.445Z,65141.25
2023-07-15T20:41:19.245Z,65476.41
2023-07-15T20:43:47.895Z,66039.06
2023-07-15T20:46:18.034Z,66258.56
2023-07-15T20:48:46.828Z,65731.78
2023-07-15T20:51:16.494Z,66094.94
2023-07-15T20:53:45.068Z,66260.56
2023-07-15T20:56:14.106Z,65899.41
2023-07-15T20:58:42.766Z,65286.88
2023-07-15T21:01:11.363Z,65081.41
2023-07-15T21:03:41.290Z,65117.31
2023-07-15T21:06:09.888Z,65532.28
2023-07-15T21:08:38.403Z,65484.38
2023-07-15T21:11:06.817Z,65857.50
2023-07-15T21:13:35.259Z,65594.13
2023-07-15T21:16:03.687Z,65568.19
2023-07-15T21:18:35.938Z,65685.91
2023-07-15T21:21:06.208Z,65919.34
2023-07-15T21:23:34.783Z,65735.78
2023-07-15T21:26:07.144Z,66731.53
2023-07-15T21:28:38.147Z,67531.97
2023-07-15T21:31:07.425Z,67436.13
2023-07-15T21:33:36.028Z,67855.38
2023-07-15T21:36:06.177Z,68598.16
2023-07-15T21:38:34.679Z,69858.44
2023-07-15T21:41:03.096Z,73746.06
2023-07-15T21:43:31.592Z,77075.53
2023-07-15T21:46:00.094Z,80664.72
2023-07-15T21:48:28.453Z,85798.66
2023-07-15T21:50:57.741Z,90168.50
2023-07-15T21:53:27.572Z,92999.00
2023-07-15T21:55:57.001Z,95831.81
2023-07-15T21:58:25.505Z,98409.13
2023-07-15T22:00:58.590Z,100988.31
2023-07-15T22:03:27.748Z,102020.53
2023-07-15T22:05:56.991Z,103569.44
2023-07-15T22:08:25.597Z,104860.72
2023-07-15T22:10:55.591Z,106152.47
2023-07-15T22:13:24.104Z,106927.75
2023-07-15T22:15:52.640Z,106669.31
2023-07-15T22:18:38.568Z,107444.69
2023-07-15T22:21:08.898Z,107703.22
2023-07-15T22:23:37.228Z,107444.69
2023-07-15T22:26:06.995Z,108220.28
2023-07-15T22:28:35.374Z,108478.84
2023-07-15T22:31:03.811Z,109254.63
2023-07-15T22:33:32.493Z,108996.00
2023-07-15T22:36:00.862Z,108996.00
2023-07-15T22:38:29.223Z,109513.28
2023-07-15T22:40:57.687Z,109513.28
2023-07-15T22:43:27.428Z,109771.94
2023-07-15T22:45:57.353Z,110030.59
2023-07-15T22:48:27.334Z,110030.59
2023-07-15T22:50:56.432Z,110289.28
2023-07-15T22:53:25.589Z,110289.28
2023-07-15T22:55:54.252Z,111583.06
2023-07-15T22:58:22.937Z,112100.69
2023-07-15T23:00:57.388Z,112359.53
2023-07-15T23:03:26.722Z,113395.13
2023-07-15T23:05:55.382Z,114172.03
2023-07-15T23:08:24.011Z,114690.03
2023-07-15T23:10:52.454Z,115208.13
2023-07-15T23:13:21.080Z,115467.22
2023-07-15T23:15:59.437Z,115728.34
2023-07-15T23:18:32.922Z,115728.34
2023-07-15T23:21:01.292Z,115728.34
2023-07-15T23:23:29.628Z,115728.34
2023-07-15T23:25:57.998Z,115728.34
2023-07-15T23:28:26.298Z,115728.34
2023-07-15T23:30:54.832Z,115728.34
2023-07-15T23:33:23.317Z,115728.34
2023-07-15T23:35:53.496Z,115728.34
2023-07-15T23:38:21.807Z,115728.34
2023-07-15T23:40:50.598Z,115728.34
2023-07-15T23:43:19.019Z,115728.34
2023-07-15T23:45:47.380Z,115728.34
2023-07-15T23:48:15.913Z,115728.34
2023-07-15T23:50:44.285Z,115728.34
2023-07-15T23:53:15.290Z,115728.34
2023-07-15T23:55:43.670Z,115728.34
2023-07-15T23:58:12.098Z,115728.34
